Time;durP1;ratioP1;P1;durP2;ratioP2;P2;SDS_P1;SDS_P2;PMS_P1;PMS_P2;Temp;Humidity;BMP_temperature;BMP_pressure;BME280_temperature;BME280_humidity;BME280_pressure;Samples;Min_cycle;Max_cycle;Signal;HPM_P1;HPM_P2
2022/11/01 00:01:37;;;;;;;33.37;17.37;;;12.90;99.90;;;;;;5041791;28;20942;-43
2022/11/01 00:04:05;;;;;;;28.50;16.47;;;12.90;99.90;;;;;;5040859;28;20592;-45
2022/11/01 00:06:32;;;;;;;30.47;17.43;;;12.90;99.90;;;;;;5024535;28;20725;-44
2022/11/01 00:08:59;;;;;;;26.83;16.23;;;12.90;99.90;;;;;;5042722;28;20211;-44
2022/11/01 00:11:26;;;;;;;30.07;17.50;;;12.90;99.90;;;;;;5039763;28;20187;-43
2022/11/01 00:13:53;;;;;;;28.73;17.60;;;12.90;99.90;;;;;;5042498;28;20224;-42
2022/11/01 00:16:21;;;;;;;33.13;17.07;;;12.90;99.90;;;;;;5040135;28;20218;-44
2022/11/01 00:18:49;;;;;;;23.80;15.07;;;12.90;99.90;;;;;;5043314;28;20642;-42
2022/11/01 00:21:16;;;;;;;27.43;16.30;;;12.90;99.90;;;;;;5029708;28;20215;-46
2022/11/01 00:23:44;;;;;;;28.53;17.57;;;12.90;99.90;;;;;;5038468;28;20223;-46
2022/11/01 00:26:14;;;;;;;28.40;16.63;;;12.90;99.90;;;;;;5041587;28;20203;-45
2022/11/01 00:28:41;;;;;;;25.80;15.90;;;12.90;99.90;;;;;;5035800;28;20199;-43
2022/11/01 00:31:08;;;;;;;25.80;17.43;;;12.90;99.90;;;;;;5042424;28;20211;-43
2022/11/01 00:33:37;;;;;;;25.53;16.03;;;12.90;99.90;;;;;;5039831;28;20211;-43
2022/11/01 00:36:05;;;;;;;27.60;17.03;;;12.90;99.90;;;;;;5036653;28;20199;-45
2022/11/01 00:38:32;;;;;;;26.67;16.80;;;12.90;99.90;;;;;;5018090;28;20203;-47
2022/11/01 00:41:01;;;;;;;23.13;14.93;;;12.90;99.90;;;;;;5043276;28;20222;-45
2022/11/01 00:43:28;;;;;;;22.93;15.20;;;12.90;99.90;;;;;;5036459;28;20227;-42
2022/11/01 00:45:55;;;;;;;25.07;16.67;;;12.90;99.90;;;;;;5047619;28;20199;-44
2022/11/01 00:48:22;;;;;;;28.00;16.90;;;12.90;99.90;;;;;;5043096;28;20203;-48
2022/11/01 00:50:50;;;;;;;22.53;14.77;;;12.90;99.90;;;;;;5047561;28;20191;-42
2022/11/01 00:53:18;;;;;;;28.03;17.40;;;12.90;99.90;;;;;;5021468;28;20590;-42
2022/11/01 00:55:44;;;;;;;25.73;16.00;;;12.90;99.90;;;;;;5046487;28;20202;-43
2022/11/01 00:58:11;;;;;;;24.33;15.63;;;12.90;99.90;;;;;;5045259;28;20558;-43
2022/11/01 01:00:38;;;;;;;22.60;15.90;;;12.90;99.90;;;;;;5045180;28;20211;-43
2022/11/01 01:03:06;;;;;;;28.83;16.87;;;12.90;99.90;;;;;;5046247;28;20612;-44
2022/11/01 01:05:33;;;;;;;26.20;16.07;;;12.90;99.90;;;;;;5037183;28;20199;-46
2022/11/01 01:08:02;;;;;;;26.40;17.43;;;12.90;99.90;;;;;;5040723;28;20207;-44
2022/11/01 01:10:28;;;;;;;24.23;16.07;;;12.90;99.90;;;;;;5031642;28;20353;-45
2022/11/01 01:12:55;;;;;;;23.77;16.27;;;12.90;99.90;;;;;;5046849;28;20238;-42
2022/11/01 01:15:22;;;;;;;30.40;18.10;;;12.90;99.90;;;;;;5041891;28;20249;-46
2022/11/01 01:17:49;;;;;;;28.23;18.07;;;13.00;99.90;;;;;;5046718;28;20207;-44
2022/11/01 01:20:16;;;;;;;26.70;18.03;;;13.00;99.90;;;;;;5037944;28;20567;-45
2022/11/01 01:22:43;;;;;;;33.57;18.90;;;12.90;99.90;;;;;;5039184;28;20229;-42
2022/11/01 01:25:11;;;;;;;28.20;17.90;;;13.00;99.90;;;;;;5026329;28;20717;-42
2022/11/01 01:27:38;;;;;;;26.57;17.33;;;13.00;99.90;;;;;;5043339;28;20203;-42
2022/11/01 01:30:06;;;;;;;29.03;19.03;;;13.00;99.90;;;;;;5039916;28;20199;-44
2022/11/01 01:32:34;;;;;;;29.30;19.27;;;13.00;99.90;;;;;;5037303;28;20214;-43
2022/11/01 01:35:01;;;;;;;28.73;18.07;;;13.00;99.90;;;;;;5045354;28;20270;-45
2022/11/01 01:37:28;;;;;;;30.80;18.87;;;13.00;99.90;;;;;;5042172;28;20817;-43
2022/11/01 01:39:55;;;;;;;30.73;19.03;;;13.00;99.90;;;;;;5030593;28;20211;-42
2022/11/01 01:42:29;;;;;;;30.33;18.70;;;13.00;99.90;;;;;;5033995;28;20215;-43
2022/11/01 01:45:19;;;;;;;31.67;18.83;;;13.00;99.90;;;;;;5042068;28;20214;-46
2022/11/01 01:47:50;;;;;;;34.93;19.50;;;13.00;99.90;;;;;;5043936;28;20211;-43
2022/11/01 01:50:25;;;;;;;32.37;19.43;;;13.00;99.90;;;;;;5041418;28;20199;-43
2022/11/01 01:52:58;;;;;;;31.37;19.47;;;13.10;99.90;;;;;;5044595;28;20585;-42
2022/11/01 01:55:36;;;;;;;32.07;19.67;;;13.10;99.90;;;;;;5026599;28;20206;-42
2022/11/01 01:58:06;;;;;;;32.80;19.60;;;13.10;99.90;;;;;;5044143;28;20238;-43
2022/11/01 02:00:33;;;;;;;29.67;18.97;;;13.10;99.90;;;;;;5043452;28;20199;-42
2022/11/01 02:03:00;;;;;;;33.87;19.93;;;13.10;99.90;;;;;;5045638;28;20258;-43
2022/11/01 02:05:36;;;;;;;32.10;20.17;;;13.10;99.90;;;;;;5040391;28;20234;-43
2022/11/01 02:08:04;;;;;;;32.27;20.43;;;13.10;99.90;;;;;;5045245;28;20202;-42
2022/11/01 02:10:31;;;;;;;33.93;20.53;;;13.10;99.90;;;;;;5027606;28;20196;-43
2022/11/01 02:12:59;;;;;;;33.80;20.27;;;13.10;99.90;;;;;;5045463;28;20230;-44
2022/11/01 02:15:33;;;;;;;38.17;20.47;;;13.20;99.90;;;;;;5040979;28;20199;-42
2022/11/01 02:18:12;;;;;;;36.43;21.13;;;13.20;99.90;;;;;;5045608;28;20238;-42
2022/11/01 02:21:02;;;;;;;36.30;21.37;;;13.20;99.90;;;;;;5044043;28;20940;-41
2022/11/01 02:23:45;;;;;;;36.60;21.27;;;13.20;99.90;;;;;;5036248;28;20218;-41
2022/11/01 02:26:39;;;;;;;36.27;21.23;;;13.20;99.90;;;;;;5027727;28;20210;-43
2022/11/01 02:29:15;;;;;;;33.53;20.63;;;13.30;99.90;;;;;;5043104;28;20204;-44
2022/11/01 02:32:04;;;;;;;36.80;21.10;;;13.20;99.90;;;;;;5044528;28;20199;-41
2022/11/01 02:34:37;;;;;;;38.73;22.03;;;13.30;99.90;;;;;;5040548;28;20199;-45
2022/11/01 02:37:13;;;;;;;36.37;21.03;;;13.30;99.90;;;;;;5044062;28;20230;-44
2022/11/01 02:39:46;;;;;;;36.33;20.80;;;13.30;99.90;;;;;;5038585;28;20202;-43
2022/11/01 02:42:19;;;;;;;40.10;23.20;;;13.30;99.90;;;;;;5027712;28;20214;-46
2022/11/01 02:44:52;;;;;;;41.87;23.57;;;13.30;99.90;;;;;;5043721;28;20210;-44
2022/11/01 02:47:22;;;;;;;39.00;23.20;;;13.40;99.90;;;;;;5042110;28;20266;-44
2022/11/01 02:49:53;;;;;;;41.13;22.70;;;13.40;99.90;;;;;;5044780;28;20199;-43
2022/11/01 02:52:23;;;;;;;40.27;24.57;;;13.40;99.90;;;;;;5041717;28;20191;-46
2022/11/01 02:54:53;;;;;;;43.93;25.17;;;13.40;99.90;;;;;;5043927;28;20664;-43
2022/11/01 02:57:28;;;;;;;41.13;24.03;;;13.40;99.90;;;;;;5025603;28;20203;-45
2022/11/01 03:00:02;;;;;;;38.97;23.93;;;13.40;99.90;;;;;;5044922;28;20206;-43
2022/11/01 03:02:41;;;;;;;46.80;24.67;;;13.40;99.90;;;;;;5040803;28;20215;-42
2022/11/01 03:05:17;;;;;;;43.57;25.70;;;13.40;99.90;;;;;;5037100;28;20199;-44
2022/11/01 03:07:49;;;;;;;47.07;25.47;;;13.50;99.90;;;;;;5043907;28;20210;-44
2022/11/01 03:10:16;;;;;;;46.30;25.30;;;13.50;99.90;;;;;;5042214;28;20211;-46
2022/11/01 03:12:56;;;;;;;42.10;25.57;;;13.50;99.90;;;;;;5026798;28;20718;-43
2022/11/01 03:15:27;;;;;;;44.90;25.13;;;13.50;99.90;;;;;;5039817;28;20230;-42
2022/11/01 03:18:01;;;;;;;47.13;25.17;;;13.50;99.90;;;;;;5044257;28;20744;-42
2022/11/01 03:20:46;;;;;;;49.97;26.73;;;13.50;99.90;;;;;;5040599;28;20207;-43
2022/11/01 03:23:16;;;;;;;45.03;25.63;;;13.60;99.90;;;;;;5041311;28;20288;-44
2022/11/01 03:25:47;;;;;;;46.33;25.40;;;13.60;99.90;;;;;;5043707;28;20656;-43
2022/11/01 03:28:20;;;;;;;43.63;24.70;;;13.60;99.90;;;;;;5026534;28;20576;-44
2022/11/01 03:30:53;;;;;;;44.13;25.53;;;13.60;99.90;;;;;;5043984;28;20249;-44
2022/11/01 03:33:23;;;;;;;46.33;26.67;;;13.60;99.90;;;;;;5036057;28;20207;-48
2022/11/01 03:35:57;;;;;;;46.20;25.87;;;13.60;99.90;;;;;;5044125;28;20207;-43
2022/11/01 03:38:27;;;;;;;42.93;25.03;;;13.60;99.90;;;;;;5040498;28;20202;-43
2022/11/01 03:41:00;;;;;;;43.43;26.07;;;13.60;99.90;;;;;;5044193;28;20692;-45
2022/11/01 03:43:29;;;;;;;39.73;24.73;;;13.60;99.90;;;;;;5023459;28;20230;-44
2022/11/01 03:45:57;;;;;;;45.00;26.27;;;13.60;99.90;;;;;;5040837;28;20199;-45
2022/11/01 03:48:25;;;;;;;48.00;26.20;;;13.60;99.90;;;;;;5033385;28;20195;-43
2022/11/01 03:50:55;;;;;;;50.07;25.27;;;13.60;99.90;;;;;;5037552;28;20200;-43
2022/11/01 03:53:21;;;;;;;45.03;25.50;;;13.60;99.90;;;;;;5039192;28;20225;-44
2022/11/01 03:55:50;;;;;;;41.20;25.13;;;13.60;99.90;;;;;;5044012;28;20664;-45
2022/11/01 03:58:17;;;;;;;45.67;26.00;;;13.60;99.90;;;;;;5027903;28;20192;-46
2022/11/01 04:00:45;;;;;;;46.50;26.33;;;13.70;99.90;;;;;;5041093;28;20279;-43
2022/11/01 04:03:13;;;;;;;43.80;26.07;;;13.70;99.90;;;;;;5040406;28;20251;-45
2022/11/01 04:05:42;;;;;;;44.83;25.03;;;13.60;99.90;;;;;;5042442;28;20195;-43
2022/11/01 04:08:11;;;;;;;42.47;24.47;;;13.70;99.90;;;;;;5042373;28;20542;-43
2022/11/01 04:10:38;;;;;;;45.60;25.83;;;13.70;99.90;;;;;;5041885;28;20187;-44
2022/11/01 04:13:05;;;;;;;44.20;24.77;;;13.70;99.90;;;;;;5042516;28;20215;-43
2022/11/01 04:21:07;;;;;;;49.43;25.43;;;13.70;99.90;;;;;;5043510;28;20294;-43
2022/11/01 04:23:35;;;;;;;45.43;26.20;;;13.70;99.90;;;;;;5033657;28;20306;-44
2022/11/01 04:26:03;;;;;;;47.67;28.27;;;13.70;99.90;;;;;;5037211;28;20203;-48
2022/11/01 04:28:29;;;;;;;45.57;27.50;;;13.70;99.90;;;;;;5032932;28;20789;-44
2022/11/01 04:30:57;;;;;;;43.27;27.30;;;13.70;99.90;;;;;;5018860;28;20211;-45
2022/11/01 04:33:24;;;;;;;41.90;25.13;;;13.70;99.90;;;;;;5038912;28;20216;-44
2022/11/01 04:35:50;;;;;;;45.90;25.90;;;13.70;99.90;;;;;;5035896;28;20664;-46
2022/11/01 04:38:19;;;;;;;43.27;26.37;;;13.70;99.90;;;;;;5033315;28;20187;-45
2022/11/01 04:40:45;;;;;;;40.30;26.10;;;13.70;99.90;;;;;;5038811;28;20675;-45
2022/11/01 04:43:13;;;;;;;41.40;26.23;;;13.70;99.90;;;;;;5037708;28;20223;-43
2022/11/01 04:45:40;;;;;;;46.87;25.70;;;13.70;99.90;;;;;;5020793;28;20207;-43
2022/11/01 04:48:11;;;;;;;44.37;25.60;;;13.70;99.90;;;;;;5037590;28;20936;-44
2022/11/01 04:50:38;;;;;;;43.20;25.63;;;13.70;99.90;;;;;;5037407;28;20210;-46
2022/11/01 04:53:05;;;;;;;40.73;26.07;;;13.70;99.90;;;;;;5038778;28;20798;-46
2022/11/01 04:55:34;;;;;;;46.00;27.73;;;13.70;99.90;;;;;;5042704;28;20203;-45
2022/11/01 04:58:00;;;;;;;47.70;26.93;;;13.70;99.90;;;;;;5035611;28;20781;-43
2022/11/01 05:00:28;;;;;;;48.87;26.73;;;13.60;99.90;;;;;;5023971;28;20215;-45
2022/11/01 05:03:00;;;;;;;40.27;24.60;;;13.60;99.90;;;;;;5034859;28;20285;-47
2022/11/01 05:05:27;;;;;;;43.30;26.07;;;13.60;99.90;;;;;;5041634;28;20191;-44
2022/11/01 05:07:59;;;;;;;49.83;26.93;;;13.60;99.90;;;;;;5030526;28;20206;-43
2022/11/01 05:10:26;;;;;;;47.83;26.77;;;13.60;99.90;;;;;;5030914;28;20208;-48
2022/11/01 05:12:55;;;;;;;46.80;26.43;;;13.60;99.90;;;;;;5033823;28;20213;-46
2022/11/01 05:15:22;;;;;;;44.20;27.03;;;13.60;99.90;;;;;;5034408;28;20196;-42
2022/11/01 05:17:48;;;;;;;48.93;27.03;;;13.60;99.90;;;;;;5025997;28;20195;-46
2022/11/01 05:20:15;;;;;;;42.30;24.83;;;13.60;99.90;;;;;;5038786;28;20200;-42
2022/11/01 05:22:42;;;;;;;46.60;27.37;;;13.60;99.90;;;;;;5046664;28;20235;-42
2022/11/01 05:25:09;;;;;;;47.50;26.83;;;13.60;99.90;;;;;;5027273;28;20215;-42
2022/11/01 05:27:36;;;;;;;43.57;25.60;;;13.60;99.90;;;;;;5025971;28;20208;-46
2022/11/01 05:30:06;;;;;;;42.03;25.70;;;13.60;99.90;;;;;;5046328;28;20210;-42
2022/11/01 05:32:34;;;;;;;47.70;28.63;;;13.60;99.90;;;;;;5021030;28;20215;-45
2022/11/01 05:35:01;;;;;;;53.70;28.57;;;13.60;99.90;;;;;;5034961;28;20278;-41
2022/11/01 05:37:28;;;;;;;45.70;26.90;;;13.60;99.90;;;;;;5036844;28;20196;-41
2022/11/01 05:39:55;;;;;;;47.00;28.50;;;13.60;99.90;;;;;;5042214;28;20191;-46
2022/11/01 05:42:22;;;;;;;51.70;27.63;;;13.60;99.90;;;;;;5035796;28;20215;-47
2022/11/01 05:44:48;;;;;;;48.30;26.73;;;13.60;99.90;;;;;;5028284;28;20251;-46
2022/11/01 05:47:17;;;;;;;45.30;27.63;;;13.60;99.90;;;;;;5035206;28;20638;-44
2022/11/01 05:49:43;;;;;;;47.70;27.93;;;13.60;99.90;;;;;;5026448;28;20203;-43
2022/11/01 05:52:10;;;;;;;48.60;28.47;;;13.60;99.90;;;;;;5041795;28;20199;-44
2022/11/01 05:54:38;;;;;;;48.67;28.37;;;13.60;99.90;;;;;;5035561;28;20202;-44
2022/11/01 05:57:05;;;;;;;49.47;28.47;;;13.60;99.90;;;;;;5036955;28;20200;-43
2022/11/01 05:59:31;;;;;;;46.93;27.93;;;13.70;99.90;;;;;;5032260;28;20211;-43
2022/11/01 06:01:58;;;;;;;45.60;26.80;;;13.70;99.90;;;;;;5032289;28;20208;-44
2022/11/01 06:04:26;;;;;;;42.93;26.90;;;13.70;99.90;;;;;;5019036;28;20298;-45
2022/11/01 06:06:53;;;;;;;46.37;27.27;;;13.70;99.90;;;;;;5032507;28;20216;-44
2022/11/01 06:09:20;;;;;;;54.10;28.37;;;13.70;99.90;;;;;;5036879;28;20190;-42
2022/11/01 06:11:46;;;;;;;50.93;28.87;;;13.70;99.90;;;;;;5033989;28;20215;-45
2022/11/01 06:14:14;;;;;;;50.97;28.43;;;13.70;99.90;;;;;;5030956;28;20231;-47
2022/11/01 06:16:40;;;;;;;43.73;27.10;;;13.70;99.90;;;;;;5038450;28;20199;-43
2022/11/01 06:19:08;;;;;;;55.83;29.77;;;13.70;99.90;;;;;;5019335;28;20349;-47
2022/11/01 06:21:36;;;;;;;49.93;29.03;;;13.70;99.90;;;;;;5039586;28;20294;-44
2022/11/01 06:24:03;;;;;;;49.70;28.53;;;13.70;99.90;;;;;;5035300;28;20229;-43
2022/11/01 06:26:30;;;;;;;49.87;28.13;;;13.70;99.90;;;;;;5038128;28;20933;-41
2022/11/01 06:29:00;;;;;;;52.10;29.13;;;13.70;99.90;;;;;;5044114;28;20218;-45
2022/11/01 06:31:27;;;;;;;46.67;28.03;;;13.70;99.90;;;;;;5030488;28;20290;-42
2022/11/01 06:33:54;;;;;;;49.57;28.80;;;13.70;99.90;;;;;;5036834;28;20588;-43
2022/11/01 06:36:21;;;;;;;42.37;28.40;;;13.70;99.90;;;;;;5017160;28;20210;-41
2022/11/01 06:38:49;;;;;;;55.07;30.47;;;13.70;99.90;;;;;;5040791;28;20207;-45
2022/11/01 06:41:16;;;;;;;48.63;28.47;;;13.70;99.90;;;;;;5042475;28;20279;-44
2022/11/01 06:43:43;;;;;;;51.93;29.33;;;13.60;99.90;;;;;;5041341;28;20231;-46
2022/11/01 06:46:10;;;;;;;50.13;28.97;;;13.60;99.90;;;;;;5036283;28;20195;-42
2022/11/01 06:48:37;;;;;;;45.73;28.03;;;13.70;99.90;;;;;;5044627;28;20191;-47
2022/11/01 06:51:05;;;;;;;51.50;28.93;;;13.70;99.90;;;;;;5019736;28;20209;-43
2022/11/01 06:53:32;;;;;;;41.80;28.20;;;13.70;99.90;;;;;;5042065;28;21089;-42
2022/11/01 06:56:00;;;;;;;50.57;28.83;;;13.70;99.90;;;;;;5039914;28;20184;-43
2022/11/01 06:58:27;;;;;;;52.77;29.33;;;13.70;99.90;;;;;;5044264;28;20286;-42
2022/11/01 07:00:53;;;;;;;50.27;27.97;;;13.70;99.90;;;;;;5035661;28;20211;-43
2022/11/01 07:03:21;;;;;;;48.07;27.30;;;13.70;99.90;;;;;;5043032;28;20219;-43
2022/11/01 07:05:48;;;;;;;43.83;27.77;;;13.70;99.90;;;;;;5026457;28;20208;-43
2022/11/01 07:08:15;;;;;;;49.50;28.77;;;13.70;99.90;;;;;;5038761;28;20575;-43
2022/11/01 07:10:43;;;;;;;44.47;27.23;;;13.70;99.90;;;;;;5042680;28;20199;-42
2022/11/01 07:13:13;;;;;;;48.53;28.67;;;13.70;99.90;;;;;;5040811;28;20215;-42
2022/11/01 07:15:40;;;;;;;47.90;29.13;;;13.70;99.90;;;;;;5043279;28;20200;-44
2022/11/01 07:18:08;;;;;;;51.73;29.03;;;13.90;99.90;;;;;;5035997;28;20268;-43
2022/11/01 07:20:40;;;;;;;49.10;27.60;;;13.70;99.90;;;;;;5044171;28;20231;-43
2022/11/01 07:23:10;;;;;;;47.07;27.30;;;13.80;99.90;;;;;;5030073;28;20327;-42
2022/11/01 07:25:37;;;;;;;49.80;28.77;;;13.70;99.90;;;;;;5041794;28;20290;-46
2022/11/01 07:28:04;;;;;;;52.00;28.37;;;13.80;99.90;;;;;;5040452;28;20199;-42
2022/11/01 07:30:33;;;;;;;52.83;28.83;;;13.80;99.90;;;;;;5041707;28;20704;-42
2022/11/01 07:33:01;;;;;;;53.93;29.20;;;13.80;99.90;;;;;;5033204;28;20331;-42
2022/11/01 07:35:29;;;;;;;49.07;29.50;;;13.80;99.90;;;;;;5043565;28;20211;-42
2022/11/01 07:37:57;;;;;;;49.90;29.60;;;13.80;99.90;;;;;;5023401;28;20210;-43
2022/11/01 07:40:26;;;;;;;47.50;29.70;;;13.90;99.90;;;;;;5042335;28;20629;-45
2022/11/01 07:42:54;;;;;;;48.70;26.90;;;13.80;99.90;;;;;;5038792;28;20309;-43
2022/11/01 07:45:21;;;;;;;50.80;28.50;;;13.80;99.90;;;;;;5038187;28;20199;-42
2022/11/01 07:47:50;;;;;;;50.60;28.73;;;13.80;99.90;;;;;;5036926;28;20262;-43
2022/11/01 07:50:17;;;;;;;47.93;28.90;;;13.90;99.90;;;;;;5039974;28;20211;-42
2022/11/01 07:52:45;;;;;;;46.47;29.53;;;13.90;99.90;;;;;;5026514;28;20878;-43
2022/11/01 07:55:12;;;;;;;47.63;26.60;;;13.90;99.90;;;;;;5040630;28;20195;-42
2022/11/01 07:57:40;;;;;;;47.03;28.93;;;13.90;99.90;;;;;;5023605;28;20595;-42
2022/11/01 08:00:09;;;;;;;47.33;27.17;;;13.90;99.90;;;;;;5035592;28;20187;-43
2022/11/01 08:02:39;;;;;;;44.97;26.20;;;14.00;99.90;;;;;;5030761;28;20704;-43
2022/11/01 08:05:10;;;;;;;43.17;26.40;;;14.00;99.90;;;;;;5032551;28;20213;-42
2022/11/01 08:07:38;;;;;;;45.93;26.83;;;14.00;99.90;;;;;;5021912;28;20606;-45
2022/11/01 08:10:06;;;;;;;40.30;26.77;;;14.10;99.90;;;;;;5038616;28;20226;-42
2022/11/01 08:12:34;;;;;;;39.60;25.47;;;14.10;99.90;;;;;;5025329;28;20645;-44
2022/11/01 08:15:01;;;;;;;46.17;25.63;;;14.20;99.90;;;;;;5021266;28;20210;-43
2022/11/01 08:17:28;;;;;;;45.20;23.90;;;14.20;99.90;;;;;;5027556;28;20207;-42
2022/11/01 08:19:55;;;;;;;42.03;24.80;;;14.30;99.90;;;;;;5020584;28;20226;-44
2022/11/01 08:22:24;;;;;;;37.10;23.33;;;14.30;99.90;;;;;;5017407;28;20684;-43
2022/11/01 08:24:51;;;;;;;42.03;25.87;;;14.40;99.90;;;;;;5029546;28;20207;-41
2022/11/01 08:27:18;;;;;;;40.20;23.10;;;14.50;99.90;;;;;;5018534;28;20231;-45
2022/11/01 08:29:45;;;;;;;34.40;21.03;;;14.50;99.90;;;;;;5019084;28;20211;-44
2022/11/01 08:32:12;;;;;;;30.97;20.77;;;14.50;99.90;;;;;;5027951;28;21651;-44
2022/11/01 08:34:39;;;;;;;32.73;20.10;;;14.60;99.90;;;;;;5021815;28;20203;-43
2022/11/01 08:37:05;;;;;;;31.10;18.63;;;14.70;99.90;;;;;;5018897;28;20214;-42
2022/11/01 08:39:34;;;;;;;26.83;16.33;;;14.80;99.90;;;;;;5030910;28;20202;-44
2022/11/01 08:42:00;;;;;;;24.83;17.03;;;14.90;99.90;;;;;;5032751;28;20290;-45
2022/11/01 08:44:28;;;;;;;24.20;15.23;;;14.90;99.90;;;;;;5036108;28;20740;-49
2022/11/01 08:46:55;;;;;;;23.53;15.00;;;15.00;99.90;;;;;;5035038;28;20191;-42
2022/11/01 08:49:22;;;;;;;22.90;14.23;;;15.00;99.90;;;;;;5030729;28;20203;-43
2022/11/01 08:51:49;;;;;;;25.70;15.00;;;15.10;99.90;;;;;;5011673;28;20766;-45
2022/11/01 08:54:15;;;;;;;21.17;14.03;;;15.10;99.90;;;;;;5037468;28;20223;-43
2022/11/01 08:56:43;;;;;;;20.53;13.13;;;15.20;99.90;;;;;;5031550;28;20195;-43
2022/11/01 08:59:11;;;;;;;19.67;14.00;;;15.20;99.90;;;;;;5039425;28;20213;-43
2022/11/01 09:01:38;;;;;;;22.63;14.73;;;15.20;99.90;;;;;;5043790;28;20317;-47
2022/11/01 09:04:06;;;;;;;21.47;13.57;;;15.30;99.90;;;;;;5036311;28;20227;-42
2022/11/01 09:06:33;;;;;;;20.53;13.00;;;15.30;99.90;;;;;;5038491;28;20222;-46
2022/11/01 09:09:00;;;;;;;20.20;13.67;;;15.30;99.90;;;;;;5026442;28;20222;-45
2022/11/01 09:11:29;;;;;;;20.70;13.20;;;15.40;99.90;;;;;;5043430;28;20224;-43
2022/11/01 09:13:57;;;;;;;17.83;12.87;;;15.40;99.90;;;;;;5027876;28;20215;-44
2022/11/01 09:16:24;;;;;;;18.07;12.73;;;15.50;99.90;;;;;;5039434;28;20276;-42
2022/11/01 09:18:51;;;;;;;18.40;13.67;;;15.60;99.90;;;;;;5033308;28;20881;-43
2022/11/01 09:21:18;;;;;;;15.83;11.40;;;15.70;99.90;;;;;;5043285;28;20230;-44
2022/11/01 09:23:45;;;;;;;16.37;11.23;;;15.80;99.90;;;;;;5018501;28;20652;-45
2022/11/01 09:26:13;;;;;;;17.73;9.70;;;16.00;99.90;;;;;;5044495;28;20204;-42
2022/11/01 09:28:40;;;;;;;14.50;8.77;;;16.10;99.90;;;;;;5037377;28;20630;-43
2022/11/01 09:31:10;;;;;;;12.40;9.10;;;16.20;99.90;;;;;;5040630;28;20199;-43
2022/11/01 09:33:37;;;;;;;12.73;8.20;;;16.30;99.90;;;;;;5040708;28;20212;-42
2022/11/01 09:36:05;;;;;;;14.30;8.57;;;16.40;99.90;;;;;;5035882;28;20206;-44
2022/11/01 09:38:32;;;;;;;11.13;6.77;;;16.40;99.90;;;;;;5036564;28;20203;-44
2022/11/01 09:41:03;;;;;;;8.83;5.67;;;16.50;99.90;;;;;;5024130;28;20191;-43
2022/11/01 09:43:34;;;;;;;9.67;5.20;;;16.60;99.90;;;;;;5033210;28;20227;-42
2022/11/01 09:46:03;;;;;;;7.20;4.67;;;16.70;99.90;;;;;;5042242;28;20191;-45
2022/11/01 09:48:33;;;;;;;8.93;4.90;;;16.70;99.90;;;;;;5037630;28;20199;-41
2022/11/01 09:51:03;;;;;;;9.47;4.77;;;16.70;99.90;;;;;;5036129;28;20218;-42
2022/11/01 09:53:30;;;;;;;6.47;4.37;;;16.70;99.90;;;;;;5029214;28;20220;-42
2022/11/01 09:56:08;;;;;;;6.87;4.33;;;16.80;99.90;;;;;;5018290;28;20979;-44
2022/11/01 09:58:46;;;;;;;8.70;4.80;;;16.80;99.90;;;;;;5032211;28;20277;-43
2022/11/01 10:01:28;;;;;;;9.57;4.90;;;16.80;99.90;;;;;;5039299;28;20208;-45
2022/11/01 10:04:15;;;;;;;6.50;4.57;;;16.80;99.90;;;;;;5034470;28;20956;-45
2022/11/01 10:06:46;;;;;;;8.07;4.53;;;16.80;99.90;;;;;;5034682;28;20224;-46
2022/11/01 10:09:24;;;;;;;8.63;5.23;;;16.80;99.90;;;;;;5032978;28;20227;-42
2022/11/01 10:12:03;;;;;;;5.80;4.80;;;16.80;99.90;;;;;;5019249;28;20211;-43
2022/11/01 10:14:42;;;;;;;9.23;5.20;;;16.80;99.90;;;;;;5030725;28;20226;-42
2022/11/01 10:17:13;;;;;;;8.40;4.83;;;16.70;99.90;;;;;;5030206;28;20197;-43
2022/11/01 10:19:46;;;;;;;6.33;4.70;;;16.80;99.90;;;;;;5036521;28;20727;-46
2022/11/01 10:22:17;;;;;;;8.67;5.23;;;16.70;99.90;;;;;;5035687;28;20222;-43
2022/11/01 10:24:47;;;;;;;9.23;4.87;;;16.70;99.90;;;;;;5026675;28;20235;-46
2022/11/01 10:27:22;;;;;;;7.20;5.20;;;16.70;99.90;;;;;;5021772;28;20214;-43
2022/11/01 10:29:58;;;;;;;11.27;5.40;;;16.70;99.90;;;;;;5025832;28;21148;-43
2022/11/01 10:32:32;;;;;;;11.90;5.40;;;16.80;99.90;;;;;;5038237;28;20191;-43
2022/11/01 10:35:04;;;;;;;5.60;5.00;;;16.70;99.90;;;;;;5026695;28;20188;-44
2022/11/01 10:37:38;;;;;;;7.17;4.43;;;16.70;99.90;;;;;;5035490;28;20211;-43
2022/11/01 10:40:12;;;;;;;4.73;4.30;;;16.60;99.90;;;;;;5030504;28;20207;-44
2022/11/01 10:42:38;;;;;;;6.97;4.17;;;16.60;99.90;;;;;;5033342;28;20222;-44
2022/11/01 10:45:08;;;;;;;5.20;4.17;;;16.60;99.90;;;;;;5029597;28;20199;-43
2022/11/01 10:47:35;;;;;;;6.53;4.53;;;16.60;99.90;;;;;;5024089;28;20790;-46
2022/11/01 10:50:09;;;;;;;8.27;3.87;;;16.60;99.90;;;;;;5031456;28;20482;-46
2022/11/01 10:52:46;;;;;;;5.33;4.10;;;16.60;99.90;;;;;;5028470;28;20246;-49
2022/11/01 10:55:18;;;;;;;5.77;4.20;;;16.60;99.90;;;;;;5031157;28;20992;-43
2022/11/01 10:57:51;;;;;;;5.93;3.90;;;16.60;99.90;;;;;;5034349;28;20282;-45
2022/11/01 11:00:20;;;;;;;5.63;4.13;;;16.70;99.90;;;;;;5020445;28;20235;-43
2022/11/01 11:02:48;;;;;;;7.63;3.93;;;16.70;99.90;;;;;;5030203;28;20238;-47
2022/11/01 11:05:17;;;;;;;4.97;3.97;;;16.70;99.90;;;;;;5040135;28;20302;-43
2022/11/01 11:07:44;;;;;;;6.33;3.83;;;16.80;99.90;;;;;;5036563;28;20202;-44
2022/11/01 11:10:17;;;;;;;5.50;3.30;;;16.90;99.90;;;;;;5050217;28;20250;-43
2022/11/01 11:12:47;;;;;;;5.27;2.63;;;17.00;99.90;;;;;;5038972;28;20577;-43
2022/11/01 11:15:19;;;;;;;4.93;2.17;;;17.10;99.90;;;;;;5021159;28;20207;-43
2022/11/01 11:17:49;;;;;;;4.80;2.43;;;17.20;99.90;;;;;;5032186;28;20199;-43
2022/11/01 11:20:21;;;;;;;5.13;2.30;;;17.20;99.90;;;;;;5043990;28;20214;-43
2022/11/01 11:22:48;;;;;;;4.10;2.13;;;17.30;99.90;;;;;;5035984;28;20743;-42
2022/11/01 11:25:18;;;;;;;4.70;2.23;;;17.40;99.90;;;;;;5034942;28;20708;-43
2022/11/01 11:27:48;;;;;;;3.53;1.60;;;17.50;99.90;;;;;;5032753;28;20215;-46
2022/11/01 11:30:27;;;;;;;2.40;1.70;;;17.60;99.90;;;;;;5025397;28;20211;-43
2022/11/01 11:32:54;;;;;;;10.03;1.70;;;17.70;99.90;;;;;;5025300;28;23041;-41
2022/11/01 11:35:23;;;;;;;2.30;1.50;;;17.70;99.90;;;;;;5042819;28;20206;-41
2022/11/01 11:37:54;;;;;;;3.20;1.20;;;17.60;99.90;;;;;;5033822;28;20896;-42
2022/11/01 11:40:23;;;;;;;5.27;1.10;;;17.60;99.90;;;;;;5035823;28;20207;-42
2022/11/01 11:42:51;;;;;;;4.77;1.47;;;17.60;99.90;;;;;;5020447;28;20247;-42
2022/11/01 11:45:26;;;;;;;3.83;1.27;;;17.50;99.90;;;;;;5031839;28;20212;-46
2022/11/01 11:47:53;;;;;;;4.43;1.43;;;17.30;99.90;;;;;;4990737;28;20226;-41
2022/11/01 11:50:31;;;;;;;5.60;0.77;;;17.30;99.90;;;;;;5033506;28;20203;-43
2022/11/01 11:53:01;;;;;;;1.73;0.77;;;17.30;99.90;;;;;;5032197;28;20936;-41
2022/11/01 11:55:40;;;;;;;4.87;0.90;;;17.20;99.90;;;;;;5035170;28;20203;-42
2022/11/01 11:58:19;;;;;;;5.33;0.93;;;17.20;99.90;;;;;;5032037;28;20272;-42
2022/11/01 12:00:50;;;;;;;3.10;1.10;;;17.20;99.90;;;;;;5019044;28;20261;-43
2022/11/01 12:03:17;;;;;;;4.20;1.50;;;17.20;99.90;;;;;;5040379;28;20716;-41
2022/11/01 12:05:54;;;;;;;3.33;0.97;;;17.20;99.90;;;;;;5026907;28;20217;-44
2022/11/01 12:08:36;;;;;;;3.60;0.90;;;17.20;99.90;;;;;;5042470;28;20199;-42
2022/11/01 12:11:04;;;;;;;5.70;1.73;;;17.20;99.90;;;;;;5034494;28;20199;-48
2022/11/01 12:13:35;;;;;;;4.73;1.00;;;17.20;99.90;;;;;;5031926;28;20589;-42
2022/11/01 12:16:24;;;;;;;7.93;1.43;;;17.20;99.90;;;;;;5024952;28;20203;-43
2022/11/01 12:18:56;;;;;;;4.13;1.30;;;17.20;99.90;;;;;;5013204;28;20211;-44
2022/11/01 12:21:30;;;;;;;6.87;1.40;;;17.20;99.90;;;;;;5035611;28;20206;-42
2022/11/01 12:24:03;;;;;;;6.93;1.17;;;17.20;99.90;;;;;;5037845;28;20294;-42
2022/11/01 12:26:34;;;;;;;5.93;2.10;;;17.20;99.90;;;;;;5036493;28;20204;-41
2022/11/01 12:29:11;;;;;;;5.40;1.40;;;17.20;99.90;;;;;;5033459;28;20203;-42
2022/11/01 12:31:43;;;;;;;6.43;1.80;;;17.20;99.90;;;;;;5024449;28;20203;-44
2022/11/01 12:34:17;;;;;;;4.60;1.57;;;17.20;99.90;;;;;;5034969;28;20226;-45
2022/11/01 12:36:52;;;;;;;4.50;1.13;;;17.20;99.90;;;;;;5027245;28;20206;-41
2022/11/01 12:39:33;;;;;;;12.80;1.97;;;17.20;99.90;;;;;;5040593;28;20195;-42
2022/11/01 12:42:03;;;;;;;6.23;1.50;;;17.20;99.90;;;;;;5033560;28;20187;-42
2022/11/01 12:44:34;;;;;;;5.53;1.57;;;17.20;99.90;;;;;;5040620;28;20774;-44
2022/11/01 12:47:08;;;;;;;7.27;1.60;;;17.20;99.90;;;;;;5028946;28;20300;-48
2022/11/01 12:49:44;;;;;;;6.00;1.70;;;17.20;99.90;;;;;;5021722;28;20207;-44